Robertsport/Cape Mount Airport

Jump to: basic info | weather | comments

Related pages: nearby airports | nearby navaids | notams | map

Basic information (top)

Codes: GLCM
Location: lon 6.800000, lat -11.367000, elev 10 ft / 3 m msl
Status: small_airport

Weather (top)

Current conditions for Roberts International Airport 69nm (128km) ESE (rec'd 2014/09/30 15:30Z):

GLRB 301530Z 22010KT 9999 SCT018 BKN110 28/24 Q1012 NOSIG

Airport forecast for Roberts International Airport 69nm (128km) ESE (rec'd 2014/09/30 06:54Z):

TAF TAF GLRB 300400Z 3006/0112 23010KT 9999 BKN016 
      BECMG 3007/3009 08005KT 8000 -RA/TSRA BKN015 FEW024CB 
      TEMPO 3010/3015 25012KT 7000 TSRA SCT005 BKN014 FEW024CB

Latest comments (top)

No comments yet for Robertsport/Cape Mount Airport

More... (top)

See also NOTAMs and nearby airports and navaids, or visit the Robertsport/Cape Mount Airport page at the main OurAirports website..